Terminal Aerodrome Forecast
Issued by NWS Newport/Morehead City, NC

Home | Current Version | Previous Version | Graphics & Text | Print | Product List | Glossary On
Versions: 1 2 3 4 5 6 7 8 9 10 11 12 13 14 15
000
FTUS42 KMHX 221000 AAA
TAFEWN
TAF AMD
KEWN 221006Z 2210/2306 04010KT 4SM -RA BR OVC005
     FM221900 35005KT 4SM -DZ BR OVC004
     FM230100 35003KT 1SM BR OVC004=

USA.gov is the U.S. government's official web portal to all federal, state and local government web resources and services.